Time;durP1;ratioP1;P1;durP2;ratioP2;P2;SDS_P1;SDS_P2;PMS_P1;PMS_P2;Temp;Humidity;BMP_temperature;BMP_pressure;BME280_temperature;BME280_humidity;BME280_pressure;Samples;Min_cycle;Max_cycle;Signal;HPM_P1;HPM_P2
2021/09/21 00:01:29;;;;;;;10.47;8.50;;;9.90;99.90;;;;;;4392630;32;20545;-66
2021/09/21 00:03:56;;;;;;;9.07;8.27;;;9.90;99.90;;;;;;4392540;32;20212;-67
2021/09/21 00:06:23;;;;;;;13.07;8.60;;;9.90;99.90;;;;;;4392816;32;20228;-67
2021/09/21 00:08:50;;;;;;;8.50;7.73;;;9.80;99.90;;;;;;4391827;32;20257;-66
2021/09/21 00:11:17;;;;;;;9.77;8.13;;;9.80;99.90;;;;;;4392984;32;20186;-65
2021/09/21 00:13:44;;;;;;;10.57;8.47;;;9.80;99.90;;;;;;4392088;32;20168;-66
2021/09/21 00:16:11;;;;;;;8.30;7.50;;;9.70;99.90;;;;;;4392475;32;20192;-66
2021/09/21 00:18:50;;;;;;;8.97;8.27;;;9.70;99.90;;;;;;4391726;32;20175;-65
2021/09/21 00:21:17;;;;;;;9.23;8.43;;;9.70;99.90;;;;;;4380480;32;20194;-67
2021/09/21 00:23:44;;;;;;;8.93;8.03;;;9.60;99.90;;;;;;4392509;32;20147;-64
2021/09/21 00:26:11;;;;;;;9.30;8.50;;;9.70;99.90;;;;;;4392005;32;20648;-67
2021/09/21 00:28:38;;;;;;;9.40;8.60;;;9.60;99.90;;;;;;4392296;32;20238;-65
2021/09/21 00:31:08;;;;;;;10.67;8.33;;;9.60;99.90;;;;;;4391516;32;20160;-65
2021/09/21 00:33:46;;;;;;;8.17;7.37;;;9.60;99.90;;;;;;4390906;32;20217;-66
2021/09/21 00:36:16;;;;;;;8.63;8.03;;;9.60;99.90;;;;;;4387633;32;20246;-66
2021/09/21 00:38:43;;;;;;;8.27;7.60;;;9.50;99.90;;;;;;4392063;32;20193;-67
2021/09/21 00:41:11;;;;;;;9.37;8.47;;;9.50;99.90;;;;;;4391949;32;20571;-68
2021/09/21 00:43:38;;;;;;;9.37;7.83;;;9.50;99.90;;;;;;4392300;32;20169;-65
2021/09/21 00:46:05;;;;;;;8.83;7.93;;;9.40;99.90;;;;;;4391636;32;20513;-65
2021/09/21 00:48:31;;;;;;;8.40;7.70;;;9.40;99.90;;;;;;4392150;32;20152;-65
2021/09/21 00:51:07;;;;;;;8.87;8.07;;;9.40;99.90;;;;;;4340064;32;1672296;-68
2021/09/21 00:53:35;;;;;;;8.93;8.13;;;9.40;99.90;;;;;;4392531;32;20166;-65
2021/09/21 00:56:05;;;;;;;9.13;8.23;;;9.40;99.90;;;;;;4401721;32;20181;-67
2021/09/21 00:58:35;;;;;;;8.70;8.07;;;9.30;99.90;;;;;;4407246;32;20138;-65
2021/09/21 01:01:05;;;;;;;9.10;8.30;;;9.30;99.90;;;;;;4395471;32;20154;-65
2021/09/21 01:03:35;;;;;;;11.43;9.33;;;9.20;99.90;;;;;;4391505;32;20583;-68
2021/09/21 01:06:04;;;;;;;8.97;8.07;;;9.30;99.90;;;;;;4403099;32;20144;-65
2021/09/21 01:08:31;;;;;;;9.07;8.23;;;9.20;99.90;;;;;;4406756;32;20154;-65
2021/09/21 01:11:02;;;;;;;10.17;9.17;;;9.20;99.90;;;;;;4396819;32;20183;-67
2021/09/21 01:13:31;;;;;;;8.40;7.63;;;9.20;99.90;;;;;;4391934;32;20566;-65
2021/09/21 01:16:06;;;;;;;10.03;9.03;;;9.20;99.90;;;;;;4402409;32;20173;-68
2021/09/21 01:18:37;;;;;;;10.13;9.10;;;9.20;99.90;;;;;;4399826;32;20137;-65
2021/09/21 01:21:05;;;;;;;8.60;7.90;;;9.20;99.90;;;;;;4392376;32;20144;-65
2021/09/21 01:23:44;;;;;;;9.67;8.93;;;9.10;99.90;;;;;;4401930;32;20160;-64
2021/09/21 01:26:11;;;;;;;9.40;8.50;;;9.10;99.90;;;;;;4406536;32;20160;-64
2021/09/21 01:28:38;;;;;;;10.47;9.60;;;9.10;99.90;;;;;;4399327;32;20488;-64
2021/09/21 01:31:05;;;;;;;9.70;8.73;;;9.00;99.90;;;;;;4391267;32;20218;-64
2021/09/21 01:33:32;;;;;;;9.33;8.43;;;9.00;99.90;;;;;;4392084;32;20172;-67
2021/09/21 01:35:59;;;;;;;9.33;8.63;;;9.00;99.90;;;;;;4391902;32;20191;-65
2021/09/21 01:38:28;;;;;;;9.00;8.30;;;9.00;99.90;;;;;;4397313;32;20145;-66
2021/09/21 01:40:59;;;;;;;8.93;8.23;;;9.00;99.90;;;;;;4406419;32;20174;-65
2021/09/21 01:43:27;;;;;;;9.43;8.73;;;8.90;99.90;;;;;;4401346;32;20227;-64
2021/09/21 01:45:57;;;;;;;9.17;8.13;;;8.90;99.90;;;;;;4394184;32;20152;-67
2021/09/21 01:48:25;;;;;;;9.23;8.37;;;8.90;99.90;;;;;;4406452;32;20163;-64
2021/09/21 01:50:57;;;;;;;10.67;9.77;;;8.90;99.90;;;;;;4404649;32;20142;-64
2021/09/21 01:53:34;;;;;;;9.37;8.43;;;8.80;99.90;;;;;;4391218;32;20447;-64
2021/09/21 01:58:47;;;;;;;10.80;9.90;;;8.80;99.90;;;;;;4391669;32;20175;-64
2021/09/21 02:01:14;;;;;;;8.73;8.10;;;8.80;99.90;;;;;;4391775;32;20240;-64
2021/09/21 02:03:42;;;;;;;8.87;8.00;;;8.80;99.90;;;;;;4390804;32;20142;-66
2021/09/21 02:06:09;;;;;;;9.57;8.67;;;8.80;99.90;;;;;;4390748;32;20565;-63
2021/09/21 02:08:36;;;;;;;9.70;8.80;;;8.80;99.90;;;;;;4391730;32;20219;-64
2021/09/21 02:11:05;;;;;;;9.70;8.83;;;8.90;99.90;;;;;;4385790;32;20215;-63
2021/09/21 02:13:32;;;;;;;10.53;9.53;;;8.90;99.90;;;;;;4386430;32;20145;-67
2021/09/21 02:16:13;;;;;;;9.53;8.73;;;8.90;99.90;;;;;;4381638;32;20694;-67
2021/09/21 02:18:39;;;;;;;13.27;9.10;;;9.00;99.90;;;;;;4386208;32;20232;-66
2021/09/21 02:21:06;;;;;;;9.70;8.90;;;9.00;99.90;;;;;;4389912;32;20155;-66
2021/09/21 02:23:33;;;;;;;10.10;9.27;;;8.90;99.90;;;;;;4390713;32;20150;-64
2021/09/21 02:26:09;;;;;;;8.90;8.20;;;8.90;99.90;;;;;;4389883;32;20206;-66
2021/09/21 02:28:39;;;;;;;9.87;8.93;;;8.90;99.90;;;;;;4390501;32;20144;-65
2021/09/21 02:31:06;;;;;;;10.17;9.13;;;8.90;99.90;;;;;;4390369;32;20154;-65
2021/09/21 02:33:36;;;;;;;10.47;9.53;;;8.90;99.90;;;;;;4391130;32;20159;-62
2021/09/21 02:36:07;;;;;;;8.93;8.17;;;8.90;99.90;;;;;;4389983;32;20203;-64
2021/09/21 02:38:34;;;;;;;8.90;8.20;;;8.90;99.90;;;;;;4390591;32;20158;-66
2021/09/21 02:41:01;;;;;;;8.63;7.93;;;8.90;99.90;;;;;;4390050;32;20153;-63
2021/09/21 02:43:29;;;;;;;10.87;9.90;;;8.80;99.90;;;;;;4391936;32;20548;-65
2021/09/21 02:46:00;;;;;;;9.63;8.80;;;8.80;99.90;;;;;;4390770;32;20161;-67
2021/09/21 02:48:27;;;;;;;8.77;8.07;;;8.80;99.90;;;;;;4389942;32;20604;-63
2021/09/21 02:50:54;;;;;;;10.33;9.33;;;8.80;99.90;;;;;;4391589;32;20141;-66
2021/09/21 02:53:24;;;;;;;9.67;8.97;;;8.80;99.90;;;;;;4390060;32;20167;-65
2021/09/21 02:55:50;;;;;;;8.90;8.10;;;8.80;99.90;;;;;;4390346;32;20245;-65
2021/09/21 02:58:18;;;;;;;10.80;9.90;;;8.70;99.90;;;;;;4391942;32;20515;-63
2021/09/21 03:00:49;;;;;;;10.07;9.07;;;8.70;99.90;;;;;;4391232;32;20212;-66
2021/09/21 03:03:16;;;;;;;11.03;10.13;;;8.70;99.90;;;;;;4389587;32;20219;-64
2021/09/21 03:05:54;;;;;;;9.30;8.50;;;8.60;99.90;;;;;;4390393;32;20212;-64
2021/09/21 03:08:22;;;;;;;9.20;8.50;;;8.60;99.90;;;;;;4391350;32;20159;-64
2021/09/21 03:11:05;;;;;;;7.97;7.37;;;8.60;99.90;;;;;;4390129;32;20206;-64
2021/09/21 03:17:06;;;;;;;8.87;7.87;;;8.50;99.90;;;;;;4392039;32;20445;-64
2021/09/21 03:19:38;;;;;;;9.07;8.27;;;8.50;99.90;;;;;;4391550;32;20209;-63
2021/09/21 03:22:05;;;;;;;11.43;10.53;;;8.40;99.90;;;;;;4391755;32;20145;-65
2021/09/21 03:24:33;;;;;;;9.60;8.73;;;8.40;99.90;;;;;;4375867;32;20149;-64
2021/09/21 03:27:00;;;;;;;9.27;8.37;;;8.40;99.90;;;;;;4386051;32;20179;-64
2021/09/21 03:29:28;;;;;;;8.50;7.70;;;8.40;99.90;;;;;;4390518;32;20160;-67
2021/09/21 03:31:56;;;;;;;9.93;9.20;;;8.40;99.90;;;;;;4391292;32;20142;-64
2021/09/21 03:34:30;;;;;;;11.03;10.03;;;8.40;99.90;;;;;;4390201;32;20155;-65
2021/09/21 03:36:59;;;;;;;10.13;9.37;;;8.40;99.90;;;;;;4384945;32;20144;-64
2021/09/21 03:39:26;;;;;;;10.23;9.30;;;8.50;99.90;;;;;;4386378;32;20174;-65
2021/09/21 03:41:53;;;;;;;9.93;9.13;;;8.50;99.90;;;;;;4379019;32;20153;-64
2021/09/21 03:44:19;;;;;;;10.60;9.70;;;8.50;99.90;;;;;;4385887;32;20184;-64
2021/09/21 03:46:46;;;;;;;10.07;9.17;;;8.40;99.90;;;;;;4394558;32;20136;-64
2021/09/21 03:49:14;;;;;;;9.00;8.30;;;8.40;99.90;;;;;;4392773;32;20530;-63
2021/09/21 03:51:44;;;;;;;8.30;7.60;;;8.40;99.90;;;;;;4393821;32;20148;-64
2021/09/21 03:54:17;;;;;;;9.93;9.20;;;8.30;99.90;;;;;;4392591;32;20152;-64
2021/09/21 03:56:46;;;;;;;9.50;8.70;;;8.30;99.90;;;;;;4407243;32;20164;-64
2021/09/21 03:59:13;;;;;;;9.47;8.57;;;8.30;99.90;;;;;;4400863;32;20168;-65
2021/09/21 04:01:40;;;;;;;9.63;8.93;;;8.30;99.90;;;;;;4392679;32;20198;-65
2021/09/21 04:04:10;;;;;;;9.73;8.67;;;8.40;99.90;;;;;;4398309;32;20510;-64
2021/09/21 04:06:40;;;;;;;9.07;8.27;;;8.40;99.90;;;;;;4409056;32;20178;-64
2021/09/21 04:09:06;;;;;;;9.50;8.47;;;8.40;99.90;;;;;;4407826;32;20160;-66
2021/09/21 04:11:33;;;;;;;11.80;10.70;;;8.40;99.90;;;;;;4407383;32;20166;-64
2021/09/21 04:14:00;;;;;;;10.37;9.53;;;8.30;99.90;;;;;;4408743;32;20682;-64
2021/09/21 04:16:30;;;;;;;12.43;10.80;;;8.30;99.90;;;;;;4407716;32;20154;-67
2021/09/21 04:18:58;;;;;;;11.13;10.23;;;8.20;99.90;;;;;;4407009;32;20512;-64
2021/09/21 04:21:25;;;;;;;9.53;8.73;;;8.20;99.90;;;;;;4407532;32;20182;-63
2021/09/21 04:24:10;;;;;;;9.90;8.97;;;8.20;99.90;;;;;;4395185;32;20179;-64
2021/09/21 04:26:37;;;;;;;10.23;9.33;;;8.20;99.90;;;;;;4393233;32;20140;-64
2021/09/21 04:29:04;;;;;;;9.57;8.67;;;8.10;99.90;;;;;;4407532;32;20197;-66
2021/09/21 04:31:32;;;;;;;11.00;9.90;;;8.10;99.90;;;;;;4398233;32;20192;-65
2021/09/21 04:33:59;;;;;;;11.47;10.50;;;8.10;99.90;;;;;;4392137;32;20137;-64
2021/09/21 04:36:27;;;;;;;10.27;9.30;;;8.10;99.90;;;;;;4403133;32;20145;-64
2021/09/21 04:38:57;;;;;;;9.63;8.63;;;8.10;99.90;;;;;;4407674;32;20175;-63
2021/09/21 04:41:24;;;;;;;9.30;8.40;;;8.10;99.90;;;;;;4396528;32;20153;-65
2021/09/21 04:43:51;;;;;;;9.73;8.83;;;8.10;99.90;;;;;;4393028;32;20562;-64
2021/09/21 04:46:18;;;;;;;9.63;8.67;;;8.20;99.90;;;;;;4398538;32;20567;-65
2021/09/21 04:48:45;;;;;;;10.23;9.37;;;8.20;99.90;;;;;;4391936;32;20195;-65
2021/09/21 04:51:11;;;;;;;10.17;9.37;;;8.10;99.90;;;;;;4394720;32;20238;-65
2021/09/21 04:53:38;;;;;;;9.73;8.93;;;8.10;99.90;;;;;;4393246;32;20161;-63
2021/09/21 04:56:07;;;;;;;9.30;8.10;;;8.00;99.90;;;;;;4391165;32;20170;-62
2021/09/21 04:58:33;;;;;;;9.93;9.13;;;8.00;99.90;;;;;;4390562;32;20144;-64
2021/09/21 05:01:01;;;;;;;10.57;9.77;;;7.90;99.90;;;;;;4391393;32;20263;-66
2021/09/21 05:03:28;;;;;;;10.53;9.63;;;7.90;99.90;;;;;;4391397;32;20593;-64
2021/09/21 05:05:55;;;;;;;9.77;8.97;;;7.80;99.90;;;;;;4391596;32;20134;-64
2021/09/21 05:08:24;;;;;;;9.57;8.77;;;7.80;99.90;;;;;;4392979;32;20481;-64
2021/09/21 05:10:51;;;;;;;10.10;9.40;;;7.80;99.90;;;;;;4391432;32;20194;-64
2021/09/21 05:13:19;;;;;;;9.27;8.57;;;7.80;99.90;;;;;;4392023;32;20498;-67
2021/09/21 05:15:46;;;;;;;11.07;10.17;;;7.80;99.90;;;;;;4391928;32;20465;-63
2021/09/21 05:18:15;;;;;;;10.57;9.77;;;7.80;99.90;;;;;;4386520;32;20211;-63
2021/09/21 05:20:47;;;;;;;11.63;10.80;;;7.90;99.90;;;;;;4392564;32;20136;-64
2021/09/21 05:23:13;;;;;;;11.67;10.87;;;7.80;99.90;;;;;;4383383;32;20486;-63
2021/09/21 05:25:40;;;;;;;10.27;9.47;;;7.80;99.90;;;;;;4377705;32;20182;-66
2021/09/21 05:28:07;;;;;;;9.77;9.03;;;7.80;99.90;;;;;;4361330;32;20259;-66
2021/09/21 05:30:37;;;;;;;11.10;10.30;;;7.80;99.90;;;;;;4337682;33;20176;-63
2021/09/21 05:33:05;;;;;;;11.17;10.03;;;7.80;99.90;;;;;;4340451;32;20171;-64
2021/09/21 05:35:32;;;;;;;11.10;10.30;;;7.80;99.90;;;;;;4334585;33;20196;-65
2021/09/21 05:37:58;;;;;;;10.60;9.50;;;7.80;99.90;;;;;;4341848;32;20170;-68
2021/09/21 05:40:27;;;;;;;10.83;10.03;;;7.80;99.90;;;;;;4342332;32;20220;-64
2021/09/21 05:42:53;;;;;;;10.90;10.10;;;7.90;99.90;;;;;;4346188;32;20143;-66
2021/09/21 05:45:24;;;;;;;10.43;9.63;;;7.90;99.90;;;;;;4331753;32;20234;-65
2021/09/21 05:47:54;;;;;;;11.20;10.13;;;7.90;99.90;;;;;;4335438;33;20233;-67
2021/09/21 05:50:23;;;;;;;11.57;10.33;;;8.00;99.90;;;;;;4333775;33;20569;-66
2021/09/21 05:52:50;;;;;;;12.23;10.53;;;8.00;99.90;;;;;;4337158;33;20149;-66
2021/09/21 05:55:16;;;;;;;11.70;10.20;;;8.00;99.90;;;;;;4344343;32;20214;-64
2021/09/21 05:57:46;;;;;;;11.67;10.77;;;8.10;99.90;;;;;;4412815;32;20171;-65
2021/09/21 06:00:14;;;;;;;12.07;10.90;;;8.10;99.90;;;;;;4415096;32;20258;-64
2021/09/21 06:02:41;;;;;;;10.77;9.87;;;8.10;99.90;;;;;;4414678;32;20519;-63
2021/09/21 06:05:10;;;;;;;10.47;9.47;;;8.20;99.90;;;;;;4412073;32;20148;-65
2021/09/21 06:07:44;;;;;;;9.67;8.87;;;8.30;99.90;;;;;;4414561;32;20154;-66
2021/09/21 06:10:11;;;;;;;11.03;10.13;;;8.30;99.90;;;;;;4414158;32;20194;-65
2021/09/21 06:12:38;;;;;;;11.33;10.53;;;8.40;99.90;;;;;;4420722;32;20152;-65
2021/09/21 06:15:06;;;;;;;11.13;10.03;;;8.50;99.90;;;;;;4410469;32;20152;-66
2021/09/21 06:17:33;;;;;;;10.27;8.77;;;8.60;99.90;;;;;;4407271;32;20152;-63
2021/09/21 06:20:00;;;;;;;9.53;8.70;;;8.70;99.90;;;;;;4407150;32;20132;-65
2021/09/21 06:22:28;;;;;;;13.13;10.00;;;8.70;99.90;;;;;;4406012;32;20483;-63
2021/09/21 06:24:55;;;;;;;9.67;8.77;;;8.80;99.90;;;;;;4415643;32;20242;-65
2021/09/21 06:27:22;;;;;;;10.07;9.07;;;8.90;99.90;;;;;;4415126;32;20208;-63
2021/09/21 06:29:49;;;;;;;9.77;8.97;;;9.00;99.90;;;;;;4406580;32;20581;-63
2021/09/21 06:32:16;;;;;;;10.53;9.53;;;9.10;99.90;;;;;;4406828;32;20602;-65
2021/09/21 06:34:42;;;;;;;9.00;8.10;;;9.20;99.90;;;;;;4412363;32;20173;-63
2021/09/21 06:37:10;;;;;;;11.27;10.23;;;9.30;99.90;;;;;;4421857;32;20148;-66
2021/09/21 06:39:39;;;;;;;10.93;9.83;;;9.40;99.90;;;;;;4420935;32;20137;-66
2021/09/21 06:42:05;;;;;;;10.07;9.17;;;9.40;99.90;;;;;;4422416;32;20559;-66
2021/09/21 06:44:32;;;;;;;13.30;9.33;;;9.50;99.90;;;;;;4421009;32;20146;-64
2021/09/21 06:46:59;;;;;;;8.53;7.73;;;9.60;99.90;;;;;;4420711;32;20151;-66
2021/09/21 06:49:26;;;;;;;10.40;9.07;;;9.70;99.90;;;;;;4421296;32;20555;-63
2021/09/21 06:51:53;;;;;;;9.10;8.30;;;9.80;99.90;;;;;;4420036;32;20166;-64
2021/09/21 06:54:20;;;;;;;9.40;8.60;;;9.90;99.90;;;;;;4420732;32;20589;-64
2021/09/21 06:56:55;;;;;;;9.33;8.40;;;10.00;99.90;;;;;;4420614;32;20146;-65
2021/09/21 06:59:22;;;;;;;9.47;8.57;;;10.10;99.90;;;;;;4420654;32;20252;-65
2021/09/21 07:01:49;;;;;;;9.03;8.23;;;10.30;99.90;;;;;;4420666;32;20457;-67
2021/09/21 07:04:17;;;;;;;10.03;8.97;;;10.40;99.90;;;;;;4419444;32;20556;-65
2021/09/21 07:06:44;;;;;;;10.23;8.67;;;10.60;99.90;;;;;;4423155;32;20147;-66
2021/09/21 07:09:11;;;;;;;10.20;9.30;;;10.70;99.90;;;;;;4423027;32;20567;-68
2021/09/21 07:11:38;;;;;;;8.80;8.00;;;10.90;99.90;;;;;;4423644;32;20191;-65
2021/09/21 07:14:06;;;;;;;11.33;10.20;;;11.00;99.90;;;;;;4425287;32;20518;-65
2021/09/21 07:16:33;;;;;;;9.30;8.40;;;11.20;99.90;;;;;;4423696;32;20155;-66
2021/09/21 07:19:00;;;;;;;9.40;8.50;;;11.40;99.90;;;;;;4423121;32;20166;-65
2021/09/21 07:21:27;;;;;;;10.30;7.97;;;11.60;99.90;;;;;;4424031;32;20453;-64
2021/09/21 07:23:54;;;;;;;8.07;7.37;;;11.90;99.90;;;;;;4424742;32;20135;-66
2021/09/21 07:26:21;;;;;;;8.27;7.57;;;12.10;99.90;;;;;;4423740;32;20193;-65
2021/09/21 07:28:48;;;;;;;8.10;7.40;;;12.30;99.90;;;;;;4423455;32;20144;-65
2021/09/21 07:31:17;;;;;;;8.57;7.77;;;12.60;99.90;;;;;;4423459;32;20140;-67
2021/09/21 07:33:43;;;;;;;9.90;8.47;;;12.80;99.90;;;;;;4423295;32;20170;-67
2021/09/21 07:36:11;;;;;;;9.10;8.37;;;13.00;99.90;;;;;;4423344;32;20139;-65
2021/09/21 07:38:38;;;;;;;9.03;7.53;;;13.20;99.90;;;;;;4425008;32;20204;-65
2021/09/21 07:41:05;;;;;;;8.13;7.03;;;13.30;99.90;;;;;;4425001;32;20361;-67
2021/09/21 07:43:32;;;;;;;7.90;7.10;;;13.40;99.90;;;;;;4423340;32;20194;-64
2021/09/21 07:45:59;;;;;;;8.70;7.27;;;13.50;99.90;;;;;;4423976;32;20135;-67
2021/09/21 07:48:28;;;;;;;7.87;7.20;;;13.60;99.90;;;;;;4423124;32;20140;-64
2021/09/21 07:50:56;;;;;;;7.23;6.53;;;13.60;99.90;;;;;;4423051;32;20143;-63
2021/09/21 07:53:23;;;;;;;8.13;7.37;;;13.70;99.90;;;;;;4423156;32;20177;-66
2021/09/21 07:55:53;;;;;;;7.13;6.50;;;14.00;99.90;;;;;;4424538;32;20167;-67
2021/09/21 07:58:20;;;;;;;7.13;6.50;;;14.10;99.90;;;;;;4424926;32;20152;-64
2021/09/21 08:00:52;;;;;;;7.50;6.80;;;14.10;99.90;;;;;;4423011;32;20142;-65
2021/09/21 08:03:19;;;;;;;7.37;6.77;;;14.20;99.90;;;;;;4424206;32;20138;-66
2021/09/21 08:05:47;;;;;;;8.53;7.67;;;14.30;99.90;;;;;;4423036;32;20163;-67
2021/09/21 08:08:15;;;;;;;7.80;7.17;;;14.40;99.90;;;;;;4423123;32;20140;-66
2021/09/21 08:10:42;;;;;;;7.40;6.80;;;14.50;99.90;;;;;;4424713;32;20679;-64
2021/09/21 08:13:09;;;;;;;7.30;6.60;;;14.90;99.90;;;;;;4422880;32;20145;-64
2021/09/21 08:15:36;;;;;;;8.33;7.63;;;15.10;99.90;;;;;;4422808;32;20159;-64
2021/09/21 08:18:06;;;;;;;7.77;7.03;;;15.50;99.90;;;;;;4423663;32;20174;-65
2021/09/21 08:20:33;;;;;;;7.83;7.03;;;15.80;99.90;;;;;;4422814;32;20154;-63
2021/09/21 08:23:02;;;;;;;9.10;7.57;;;16.20;99.90;;;;;;4424231;32;20205;-64
2021/09/21 08:25:29;;;;;;;8.77;6.67;;;16.70;99.90;;;;;;4423013;32;20154;-66
2021/09/21 08:27:59;;;;;;;7.40;6.67;;;17.20;99.90;;;;;;4424253;32;20478;-67
2021/09/21 08:30:26;;;;;;;6.87;6.27;;;17.40;99.70;;;;;;4422647;32;20237;-64
2021/09/21 08:32:53;;;;;;;7.77;7.07;;;17.80;99.30;;;;;;4423359;32;20193;-66
2021/09/21 08:35:19;;;;;;;7.87;7.07;;;18.10;99.30;;;;;;4422601;32;20135;-66
2021/09/21 08:37:46;;;;;;;6.37;5.87;;;18.20;98.80;;;;;;4422577;32;20154;-66
2021/09/21 08:40:15;;;;;;;6.97;6.40;;;18.40;98.50;;;;;;4422652;32;20201;-64
2021/09/21 08:42:42;;;;;;;6.87;5.93;;;18.50;98.70;;;;;;4422261;32;20175;-67
2021/09/21 08:45:10;;;;;;;6.63;6.00;;;18.40;98.40;;;;;;4422441;32;20594;-65
2021/09/21 08:47:37;;;;;;;7.63;6.83;;;18.40;97.50;;;;;;4422412;32;20148;-67
2021/09/21 08:50:06;;;;;;;6.80;6.20;;;18.30;96.90;;;;;;4422288;32;20143;-64
2021/09/21 08:52:33;;;;;;;6.80;6.30;;;18.10;96.50;;;;;;4422219;32;20244;-67
2021/09/21 08:55:01;;;;;;;8.17;7.33;;;17.90;96.30;;;;;;4422108;32;20159;-65
2021/09/21 08:57:30;;;;;;;7.83;7.10;;;17.80;96.40;;;;;;4423276;32;20167;-64
2021/09/21 08:59:58;;;;;;;6.60;5.93;;;17.70;96.60;;;;;;4422237;32;20139;-64
2021/09/21 09:02:26;;;;;;;6.67;6.10;;;17.60;96.20;;;;;;4423343;32;20159;-67
2021/09/21 09:05:02;;;;;;;7.33;6.33;;;17.70;95.30;;;;;;4420998;32;20581;-65
2021/09/21 09:07:29;;;;;;;7.73;6.20;;;17.70;95.40;;;;;;4421162;32;20472;-63
2021/09/21 09:10:03;;;;;;;8.50;6.83;;;17.70;95.20;;;;;;4422451;32;20204;-65
2021/09/21 09:12:50;;;;;;;7.50;6.80;;;17.60;95.30;;;;;;4421045;32;20261;-64
2021/09/21 09:15:25;;;;;;;7.70;7.00;;;17.70;95.70;;;;;;4415078;32;20147;-64
2021/09/21 09:17:57;;;;;;;7.53;6.83;;;17.60;96.30;;;;;;4419646;32;20214;-67
2021/09/21 09:20:38;;;;;;;8.13;7.33;;;17.70;96.60;;;;;;4412831;32;20215;-66
2021/09/21 09:23:18;;;;;;;10.17;6.57;;;17.80;96.60;;;;;;4416933;32;20187;-62
2021/09/21 09:25:47;;;;;;;7.50;6.70;;;17.90;96.50;;;;;;4412846;32;20563;-66
2021/09/21 09:28:16;;;;;;;8.23;7.47;;;18.00;96.40;;;;;;4418622;32;20139;-64
2021/09/21 09:30:44;;;;;;;7.73;6.97;;;18.00;96.10;;;;;;4420999;32;20163;-64
2021/09/21 09:33:11;;;;;;;9.70;7.43;;;18.10;95.90;;;;;;4421414;32;20214;-63
2021/09/21 09:35:40;;;;;;;7.50;6.90;;;18.10;95.70;;;;;;4422717;32;20143;-63
2021/09/21 09:38:10;;;;;;;7.50;6.80;;;18.20;96.00;;;;;;4421658;32;20123;-66
2021/09/21 09:40:40;;;;;;;7.57;6.57;;;18.50;96.10;;;;;;4422612;32;20173;-64
2021/09/21 09:43:07;;;;;;;8.60;7.90;;;18.60;96.10;;;;;;4421786;32;20511;-66
2021/09/21 09:45:37;;;;;;;8.87;8.03;;;18.80;95.90;;;;;;4421575;32;20170;-65
2021/09/21 09:48:04;;;;;;;9.23;8.33;;;18.90;95.70;;;;;;4421305;32;20147;-66
2021/09/21 09:50:37;;;;;;;8.03;7.23;;;18.90;95.90;;;;;;4421417;32;20215;-63
2021/09/21 09:53:16;;;;;;;7.30;6.67;;;19.10;95.50;;;;;;4420699;32;20162;-68
2021/09/21 09:55:45;;;;;;;7.47;6.87;;;19.30;95.60;;;;;;4421706;32;20599;-65
2021/09/21 09:58:12;;;;;;;6.93;5.43;;;19.40;95.90;;;;;;4421627;32;20139;-65
2021/09/21 10:00:40;;;;;;;8.07;7.37;;;19.50;94.60;;;;;;4421365;32;20139;-65
2021/09/21 10:03:08;;;;;;;7.10;6.50;;;19.60;94.00;;;;;;4421745;32;20147;-63
2021/09/21 10:05:36;;;;;;;7.17;6.47;;;19.60;94.10;;;;;;4422938;32;20154;-65
2021/09/21 10:08:05;;;;;;;6.83;5.50;;;19.40;93.70;;;;;;4421369;32;20151;-65
2021/09/21 10:10:33;;;;;;;5.73;5.23;;;19.10;92.40;;;;;;4421172;32;20208;-66
2021/09/21 10:13:09;;;;;;;6.20;5.60;;;18.90;92.50;;;;;;4421171;32;20202;-66
2021/09/21 10:15:37;;;;;;;5.63;5.23;;;18.80;92.10;;;;;;4421846;32;20161;-68
2021/09/21 10:18:05;;;;;;;6.20;5.77;;;18.80;93.00;;;;;;4420980;32;20155;-65
2021/09/21 10:20:34;;;;;;;6.27;5.83;;;18.90;93.30;;;;;;4422307;32;20148;-67
2021/09/21 10:23:01;;;;;;;6.57;6.07;;;18.90;93.00;;;;;;4421244;32;20158;-67
2021/09/21 10:25:31;;;;;;;5.07;4.63;;;18.90;93.40;;;;;;4421960;32;20159;-65
2021/09/21 10:27:58;;;;;;;5.47;5.17;;;18.90;92.90;;;;;;4422763;32;20140;-60
2021/09/21 10:30:29;;;;;;;5.20;4.87;;;19.00;92.80;;;;;;4421023;32;20174;-62
2021/09/21 10:32:58;;;;;;;5.07;4.67;;;19.10;92.60;;;;;;4420867;32;20161;-64
2021/09/21 10:35:31;;;;;;;5.87;5.40;;;19.20;92.10;;;;;;4421752;32;20154;-64
2021/09/21 10:37:59;;;;;;;5.00;4.70;;;19.30;92.40;;;;;;4420889;32;20155;-62
2021/09/21 10:40:38;;;;;;;5.57;5.07;;;19.30;91.70;;;;;;4420999;32;20174;-64
2021/09/21 10:43:24;;;;;;;4.97;4.67;;;19.30;91.40;;;;;;4420790;32;20166;-64
2021/09/21 10:45:55;;;;;;;5.73;4.87;;;19.40;91.60;;;;;;4422476;32;20597;-64
2021/09/21 10:48:23;;;;;;;8.50;5.33;;;19.60;92.10;;;;;;4420788;32;20144;-62
2021/09/21 10:50:59;;;;;;;6.13;5.37;;;19.70;90.40;;;;;;4421175;32;20459;-65
2021/09/21 10:53:34;;;;;;;5.70;5.30;;;19.70;90.70;;;;;;4420678;32;20157;-62
2021/09/21 10:56:04;;;;;;;4.50;4.07;;;19.70;90.90;;;;;;4420549;32;20155;-64
2021/09/21 10:58:34;;;;;;;6.23;4.70;;;19.80;91.00;;;;;;4422347;32;20185;-65
2021/09/21 11:01:02;;;;;;;4.50;4.20;;;20.00;90.20;;;;;;4421869;32;20136;-64
2021/09/21 11:03:31;;;;;;;4.43;4.03;;;19.90;88.20;;;;;;4422360;32;20153;-63
2021/09/21 11:06:00;;;;;;;5.20;4.80;;;19.80;87.50;;;;;;4420674;32;20154;-62
2021/09/21 11:08:31;;;;;;;4.53;4.23;;;19.90;89.80;;;;;;4421534;32;20140;-62
2021/09/21 11:11:00;;;;;;;4.17;3.87;;;19.90;89.20;;;;;;4421145;32;20472;-65
2021/09/21 11:13:31;;;;;;;4.40;4.00;;;20.10;88.20;;;;;;4420986;32;20159;-65
2021/09/21 11:16:01;;;;;;;4.73;4.37;;;20.20;89.00;;;;;;4420465;32;20564;-65
2021/09/21 11:18:32;;;;;;;5.97;3.77;;;20.40;89.60;;;;;;4422230;32;20144;-65
2021/09/21 11:21:02;;;;;;;3.70;3.40;;;20.40;86.80;;;;;;4421624;32;20155;-64
2021/09/21 11:23:31;;;;;;;4.20;3.83;;;20.40;85.10;;;;;;4422157;32;20629;-64
2021/09/21 11:26:00;;;;;;;4.57;4.27;;;20.30;84.80;;;;;;4422214;32;20135;-66
2021/09/21 11:28:30;;;;;;;4.80;4.50;;;20.40;86.30;;;;;;4420515;32;20144;-66
2021/09/21 11:30:58;;;;;;;4.40;4.10;;;20.50;86.20;;;;;;4420811;32;20140;-64
2021/09/21 11:33:27;;;;;;;4.23;3.83;;;20.50;85.70;;;;;;4421299;32;20177;-63
2021/09/21 11:35:55;;;;;;;4.53;4.27;;;20.50;84.80;;;;;;4421490;32;20201;-64
2021/09/21 11:38:25;;;;;;;4.27;4.03;;;20.50;86.20;;;;;;4420781;32;20155;-64
2021/09/21 11:40:52;;;;;;;4.80;3.43;;;20.50;85.10;;;;;;4420427;32;20150;-64
2021/09/21 11:43:19;;;;;;;3.57;3.27;;;20.60;82.90;;;;;;4421127;32;20173;-64
2021/09/21 11:45:49;;;;;;;4.60;4.30;;;20.60;82.80;;;;;;4420326;32;20187;-66
2021/09/21 11:48:17;;;;;;;4.30;4.00;;;20.70;83.90;;;;;;4420797;32;20205;-66
2021/09/21 11:50:45;;;;;;;3.60;3.30;;;20.80;84.60;;;;;;4412280;32;20203;-64
2021/09/21 11:53:13;;;;;;;3.53;3.23;;;20.70;81.70;;;;;;4407852;32;20143;-66
2021/09/21 11:55:43;;;;;;;4.07;3.87;;;20.60;81.80;;;;;;4407921;32;20585;-64
2021/09/21 11:58:11;;;;;;;4.57;4.17;;;20.40;83.20;;;;;;4407869;32;20162;-64
2021/09/21 12:00:40;;;;;;;4.83;4.43;;;20.40;83.60;;;;;;4408771;32;20223;-63
2021/09/21 12:03:10;;;;;;;4.70;4.40;;;20.40;83.70;;;;;;4407987;32;20177;-66
2021/09/21 12:05:39;;;;;;;6.53;4.53;;;20.40;84.30;;;;;;4408033;32;20166;-66
2021/09/21 12:08:08;;;;;;;4.70;4.40;;;20.30;81.50;;;;;;4409317;32;20185;-67
2021/09/21 12:10:37;;;;;;;5.07;4.77;;;20.00;83.90;;;;;;4407432;32;20611;-62
2021/09/21 12:13:09;;;;;;;4.30;4.10;;;19.90;84.40;;;;;;4407119;32;20183;-64
2021/09/21 12:15:37;;;;;;;4.80;4.50;;;19.90;84.60;;;;;;4407724;32;20144;-66
2021/09/21 12:18:07;;;;;;;5.03;4.63;;;19.90;84.00;;;;;;4408629;32;20206;-66
2021/09/21 12:20:41;;;;;;;4.80;4.40;;;19.90;84.80;;;;;;4409017;32;20139;-65
2021/09/21 12:23:11;;;;;;;4.80;4.37;;;19.90;85.00;;;;;;4407542;32;20158;-66
2021/09/21 12:25:41;;;;;;;5.17;4.73;;;19.90;84.80;;;;;;4409291;32;20209;-66
2021/09/21 12:28:11;;;;;;;5.33;4.93;;;19.90;82.70;;;;;;4407743;32;20136;-67
2021/09/21 12:30:41;;;;;;;5.53;4.47;;;19.70;84.00;;;;;;4407435;32;20140;-65
2021/09/21 12:33:10;;;;;;;5.03;4.53;;;19.80;84.60;;;;;;4408042;32;20602;-63
2021/09/21 12:35:39;;;;;;;5.37;4.97;;;19.90;83.30;;;;;;4407380;32;20143;-67
2021/09/21 12:38:09;;;;;;;5.20;4.30;;;20.10;84.40;;;;;;4407277;32;20175;-65
2021/09/21 12:40:48;;;;;;;5.23;4.80;;;20.30;84.10;;;;;;4407075;32;20140;-65
2021/09/21 12:43:20;;;;;;;4.60;4.20;;;20.50;82.80;;;;;;4407699;32;20179;-66
2021/09/21 12:45:47;;;;;;;4.90;4.60;;;20.60;82.90;;;;;;4407222;32;20139;-65
2021/09/21 12:48:14;;;;;;;5.23;4.83;;;20.70;84.10;;;;;;4408042;32;20238;-67
2021/09/21 12:50:42;;;;;;;6.90;4.10;;;20.50;83.30;;;;;;4403987;32;20171;-68
2021/09/21 12:53:20;;;;;;;6.40;4.83;;;20.40;83.30;;;;;;4406664;32;20170;-64
2021/09/21 12:55:54;;;;;;;3.70;3.50;;;20.50;83.70;;;;;;4400773;32;20281;-64
2021/09/21 12:58:24;;;;;;;4.00;3.63;;;20.60;83.50;;;;;;4404520;32;20171;-65
2021/09/21 13:00:51;;;;;;;3.53;3.23;;;20.40;80.50;;;;;;4402934;32;20136;-66
2021/09/21 13:03:19;;;;;;;4.00;3.70;;;20.40;81.00;;;;;;4408072;32;20158;-64